Terminal Aerodrome Forecast
Issued by NWS

Home | Current Version | Previous Version | Text Only | Print | Product List | Glossary On
Versions: 1 2 3 4 5 6 7 8 9 10 11 12 13 14 15 16 17 18 19 20 21 22
000
FTUS41 KPBZ 290500
TAFDUJ
TAF
KDUJ 290530Z 2906/3006 VRB05KT P6SM BKN250
     FM291300 13008KT P6SM BKN080
     FM291800 17011G18KT 3SM -FZRASN OVC020
     FM292000 18013G21KT 2SM -SHRASN BR OVC008
     FM300200 23011G20KT 2SM -SHSN OVC008=

USA.gov is the U.S. government's official web portal to all federal, state and local government web resources and services.